sensor_id;sensor_type;location;lat;lon;timestamp;pressure;altitude;pressure_sealevel;temperature;humidity
61359;BME280;47228;46.762;23.598;2023-11-21T00:00:40;96731.38;;;5.26;89.22
61359;BME280;47228;46.762;23.598;2023-11-21T00:03:28;96729.60;;;5.20;89.47
61359;BME280;47228;46.762;23.598;2023-11-21T00:05:56;96728.20;;;5.19;89.72
61359;BME280;47228;46.762;23.598;2023-11-21T00:08:25;96726.73;;;5.18;89.88
61359;BME280;47228;46.762;23.598;2023-11-21T00:10:53;96726.81;;;5.17;89.91
61359;BME280;47228;46.762;23.598;2023-11-21T00:13:21;96725.89;;;5.16;89.82
61359;BME280;47228;46.762;23.598;2023-11-21T00:15:49;96726.14;;;5.15;90.30
61359;BME280;47228;46.762;23.598;2023-11-21T00:18:17;96725.85;;;5.18;90.52
61359;BME280;47228;46.762;23.598;2023-11-21T00:20:46;96724.08;;;5.19;90.53
61359;BME280;47228;46.762;23.598;2023-11-21T00:23:14;96724.81;;;5.19;90.36
61359;BME280;47228;46.762;23.598;2023-11-21T00:25:42;96724.16;;;5.16;90.17
61359;BME280;47228;46.762;23.598;2023-11-21T00:28:12;96720.33;;;5.12;89.94
61359;BME280;47228;46.762;23.598;2023-11-21T00:30:40;96725.11;;;5.08;90.06
61359;BME280;47228;46.762;23.598;2023-11-21T00:33:08;96725.30;;;5.06;90.45
61359;BME280;47228;46.762;23.598;2023-11-21T00:35:37;96727.39;;;5.08;90.83
61359;BME280;47228;46.762;23.598;2023-11-21T00:38:05;96730.85;;;5.10;90.62
61359;BME280;47228;46.762;23.598;2023-11-21T00:40:33;96726.80;;;5.10;90.50
61359;BME280;47228;46.762;23.598;2023-11-21T00:43:01;96724.69;;;5.07;90.37
61359;BME280;47228;46.762;23.598;2023-11-21T00:45:33;96724.92;;;5.05;90.58
61359;BME280;47228;46.762;23.598;2023-11-21T00:48:01;96722.38;;;5.06;90.86
61359;BME280;47228;46.762;23.598;2023-11-21T00:50:29;96720.55;;;5.09;91.07
61359;BME280;47228;46.762;23.598;2023-11-21T00:52:57;96718.88;;;5.11;91.15
61359;BME280;47228;46.762;23.598;2023-11-21T00:55:26;96717.93;;;5.13;91.06
61359;BME280;47228;46.762;23.598;2023-11-21T00:57:55;96720.12;;;5.15;91.19
61359;BME280;47228;46.762;23.598;2023-11-21T01:00:24;96722.45;;;5.18;91.05
61359;BME280;47228;46.762;23.598;2023-11-21T01:02:52;96715.88;;;5.17;90.77
61359;BME280;47228;46.762;23.598;2023-11-21T01:05:20;96716.91;;;5.16;90.42
61359;BME280;47228;46.762;23.598;2023-11-21T01:07:48;96720.05;;;5.15;90.34
61359;BME280;47228;46.762;23.598;2023-11-21T01:10:16;96720.41;;;5.10;90.13
61359;BME280;47228;46.762;23.598;2023-11-21T01:12:45;96721.09;;;5.09;90.40
61359;BME280;47228;46.762;23.598;2023-11-21T01:15:13;96720.79;;;5.09;90.50
61359;BME280;47228;46.762;23.598;2023-11-21T01:17:41;96721.86;;;5.10;90.81
61359;BME280;47228;46.762;23.598;2023-11-21T01:20:10;96725.61;;;5.12;90.90
61359;BME280;47228;46.762;23.598;2023-11-21T01:22:41;96719.38;;;5.13;90.63
61359;BME280;47228;46.762;23.598;2023-11-21T01:25:10;96718.60;;;5.15;90.85
61359;BME280;47228;46.762;23.598;2023-11-21T01:27:38;96717.33;;;5.17;90.77
61359;BME280;47228;46.762;23.598;2023-11-21T01:30:07;96713.39;;;5.19;90.73
61359;BME280;47228;46.762;23.598;2023-11-21T01:32:37;96714.08;;;5.19;90.73
61359;BME280;47228;46.762;23.598;2023-11-21T01:35:05;96715.27;;;5.21;90.92
61359;BME280;47228;46.762;23.598;2023-11-21T01:37:34;96716.89;;;5.21;90.58
61359;BME280;47228;46.762;23.598;2023-11-21T01:40:03;96716.63;;;5.19;90.39
61359;BME280;47228;46.762;23.598;2023-11-21T01:42:36;96720.74;;;5.18;90.56
61359;BME280;47228;46.762;23.598;2023-11-21T01:45:04;96721.17;;;5.17;90.45
61359;BME280;47228;46.762;23.598;2023-11-21T01:47:33;96725.23;;;5.17;90.47
61359;BME280;47228;46.762;23.598;2023-11-21T01:50:03;96731.69;;;5.17;90.36
61359;BME280;47228;46.762;23.598;2023-11-21T01:52:36;96733.48;;;5.15;89.96
61359;BME280;47228;46.762;23.598;2023-11-21T01:55:06;96735.96;;;5.14;89.99
61359;BME280;47228;46.762;23.598;2023-11-21T01:57:36;96734.23;;;5.13;90.33
61359;BME280;47228;46.762;23.598;2023-11-21T02:00:06;96734.48;;;5.13;90.02
61359;BME280;47228;46.762;23.598;2023-11-21T02:02:47;96736.11;;;5.10;89.60
61359;BME280;47228;46.762;23.598;2023-11-21T02:05:17;96733.47;;;5.05;89.91
61359;BME280;47228;46.762;23.598;2023-11-21T02:07:51;96730.62;;;5.04;90.01
61359;BME280;47228;46.762;23.598;2023-11-21T02:10:20;96732.72;;;5.04;90.08
61359;BME280;47228;46.762;23.598;2023-11-21T02:12:52;96732.93;;;5.04;90.16
61359;BME280;47228;46.762;23.598;2023-11-21T02:15:19;96735.30;;;5.03;90.29
61359;BME280;47228;46.762;23.598;2023-11-21T02:17:49;96738.40;;;5.05;90.57
61359;BME280;47228;46.762;23.598;2023-11-21T02:20:21;96737.55;;;5.08;91.05
61359;BME280;47228;46.762;23.598;2023-11-21T02:22:54;96735.31;;;5.10;90.97
61359;BME280;47228;46.762;23.598;2023-11-21T02:25:27;96738.35;;;5.11;90.44
61359;BME280;47228;46.762;23.598;2023-11-21T02:28:00;96738.83;;;5.10;90.20
61359;BME280;47228;46.762;23.598;2023-11-21T02:30:29;96740.55;;;5.08;90.14
61359;BME280;47228;46.762;23.598;2023-11-21T02:33:01;96736.38;;;5.06;90.31
61359;BME280;47228;46.762;23.598;2023-11-21T02:35:30;96730.23;;;5.01;89.83
61359;BME280;47228;46.762;23.598;2023-11-21T02:37:59;96737.08;;;4.95;90.03
61359;BME280;47228;46.762;23.598;2023-11-21T02:40:28;96732.92;;;4.90;90.16
61359;BME280;47228;46.762;23.598;2023-11-21T02:42:57;96730.66;;;4.89;90.44
61359;BME280;47228;46.762;23.598;2023-11-21T02:45:27;96730.39;;;4.89;90.97
61359;BME280;47228;46.762;23.598;2023-11-21T02:47:55;96733.26;;;4.89;90.93
61359;BME280;47228;46.762;23.598;2023-11-21T02:50:26;96727.59;;;4.89;91.15
61359;BME280;47228;46.762;23.598;2023-11-21T02:52:55;96728.67;;;4.91;91.23
61359;BME280;47228;46.762;23.598;2023-11-21T02:55:26;96729.20;;;4.90;91.22
61359;BME280;47228;46.762;23.598;2023-11-21T02:57:57;96734.56;;;4.89;91.14
61359;BME280;47228;46.762;23.598;2023-11-21T03:00:25;96734.41;;;4.89;91.31
61359;BME280;47228;46.762;23.598;2023-11-21T03:02:55;96735.41;;;4.88;90.91
61359;BME280;47228;46.762;23.598;2023-11-21T03:05:24;96738.25;;;4.87;90.89
61359;BME280;47228;46.762;23.598;2023-11-21T03:07:52;96741.00;;;4.86;90.81
61359;BME280;47228;46.762;23.598;2023-11-21T03:10:20;96737.06;;;4.85;90.88
61359;BME280;47228;46.762;23.598;2023-11-21T03:12:48;96732.97;;;4.85;91.29
61359;BME280;47228;46.762;23.598;2023-11-21T03:15:19;96731.98;;;4.86;91.18
61359;BME280;47228;46.762;23.598;2023-11-21T03:17:47;96729.39;;;4.86;91.42
61359;BME280;47228;46.762;23.598;2023-11-21T03:20:17;96725.77;;;4.89;91.93
61359;BME280;47228;46.762;23.598;2023-11-21T03:22:45;96724.92;;;4.89;91.82
61359;BME280;47228;46.762;23.598;2023-11-21T03:25:14;96728.95;;;4.88;91.52
61359;BME280;47228;46.762;23.598;2023-11-21T03:27:43;96729.71;;;4.86;91.21
61359;BME280;47228;46.762;23.598;2023-11-21T03:30:12;96725.48;;;4.85;91.10
61359;BME280;47228;46.762;23.598;2023-11-21T03:32:40;96723.22;;;4.85;91.39
61359;BME280;47228;46.762;23.598;2023-11-21T03:35:08;96720.20;;;4.87;91.71
61359;BME280;47228;46.762;23.598;2023-11-21T03:37:36;96719.71;;;4.88;91.57
61359;BME280;47228;46.762;23.598;2023-11-21T03:40:09;96724.38;;;4.90;91.74
61359;BME280;47228;46.762;23.598;2023-11-21T03:42:38;96724.64;;;4.92;91.77
61359;BME280;47228;46.762;23.598;2023-11-21T03:45:07;96723.66;;;4.94;91.91
61359;BME280;47228;46.762;23.598;2023-11-21T03:47:36;96726.04;;;4.97;92.06
61359;BME280;47228;46.762;23.598;2023-11-21T03:50:05;96725.89;;;4.98;92.00
61359;BME280;47228;46.762;23.598;2023-11-21T03:52:33;96722.40;;;5.01;92.04
61359;BME280;47228;46.762;23.598;2023-11-21T03:55:02;96724.48;;;4.99;91.62
61359;BME280;47228;46.762;23.598;2023-11-21T03:57:30;96724.98;;;4.97;91.77
61359;BME280;47228;46.762;23.598;2023-11-21T03:59:58;96730.29;;;4.96;91.85
61359;BME280;47228;46.762;23.598;2023-11-21T04:02:26;96732.00;;;4.95;91.79
61359;BME280;47228;46.762;23.598;2023-11-21T04:04:56;96730.32;;;4.96;91.67
61359;BME280;47228;46.762;23.598;2023-11-21T04:07:24;96732.70;;;4.95;91.44
61359;BME280;47228;46.762;23.598;2023-11-21T04:09:52;96735.27;;;4.91;91.19
61359;BME280;47228;46.762;23.598;2023-11-21T04:12:21;96733.41;;;4.91;91.46
61359;BME280;47228;46.762;23.598;2023-11-21T04:14:50;96730.71;;;4.88;91.17
61359;BME280;47228;46.762;23.598;2023-11-21T04:17:20;96732.30;;;4.86;91.59
61359;BME280;47228;46.762;23.598;2023-11-21T04:19:48;96728.58;;;4.87;91.89
61359;BME280;47228;46.762;23.598;2023-11-21T04:22:16;96728.81;;;4.87;91.57
61359;BME280;47228;46.762;23.598;2023-11-21T04:24:44;96728.64;;;4.85;91.55
61359;BME280;47228;46.762;23.598;2023-11-21T04:27:12;96728.47;;;4.85;91.66
61359;BME280;47228;46.762;23.598;2023-11-21T04:29:41;96729.92;;;4.84;91.34
61359;BME280;47228;46.762;23.598;2023-11-21T04:32:09;96725.66;;;4.83;91.40
61359;BME280;47228;46.762;23.598;2023-11-21T04:34:37;96726.98;;;4.83;91.28
61359;BME280;47228;46.762;23.598;2023-11-21T04:37:05;96725.66;;;4.80;91.16
61359;BME280;47228;46.762;23.598;2023-11-21T04:39:34;96730.05;;;4.78;91.14
61359;BME280;47228;46.762;23.598;2023-11-21T04:42:02;96733.17;;;4.79;91.53
61359;BME280;47228;46.762;23.598;2023-11-21T04:44:31;96726.97;;;4.81;91.82
61359;BME280;47228;46.762;23.598;2023-11-21T04:46:59;96728.28;;;4.82;91.32
61359;BME280;47228;46.762;23.598;2023-11-21T04:49:27;96722.85;;;4.79;90.97
61359;BME280;47228;46.762;23.598;2023-11-21T04:51:55;96722.23;;;4.78;91.30
61359;BME280;47228;46.762;23.598;2023-11-21T04:54:23;96721.26;;;4.77;91.23
61359;BME280;47228;46.762;23.598;2023-11-21T04:56:56;96715.86;;;4.77;91.16
61359;BME280;47228;46.762;23.598;2023-11-21T04:59:24;96720.06;;;4.76;91.07
61359;BME280;47228;46.762;23.598;2023-11-21T05:01:56;96716.27;;;4.73;91.06
61359;BME280;47228;46.762;23.598;2023-11-21T05:04:25;96715.68;;;4.70;90.69
61359;BME280;47228;46.762;23.598;2023-11-21T05:06:58;96716.19;;;4.65;90.75
61359;BME280;47228;46.762;23.598;2023-11-21T05:09:26;96723.58;;;4.64;90.82
61359;BME280;47228;46.762;23.598;2023-11-21T05:11:59;96725.30;;;4.62;91.00
61359;BME280;47228;46.762;23.598;2023-11-21T05:14:28;96723.68;;;4.63;91.31
61359;BME280;47228;46.762;23.598;2023-11-21T05:16:55;96726.15;;;4.62;91.35
61359;BME280;47228;46.762;23.598;2023-11-21T05:19:24;96729.59;;;4.63;91.15
61359;BME280;47228;46.762;23.598;2023-11-21T05:21:52;96731.93;;;4.62;90.80
61359;BME280;47228;46.762;23.598;2023-11-21T05:24:20;96733.69;;;4.61;90.61
61359;BME280;47228;46.762;23.598;2023-11-21T05:26:48;96732.92;;;4.60;90.69
61359;BME280;47228;46.762;23.598;2023-11-21T05:29:16;96730.35;;;4.60;90.59
61359;BME280;47228;46.762;23.598;2023-11-21T05:31:44;96726.41;;;4.56;90.34
61359;BME280;47228;46.762;23.598;2023-11-21T05:34:12;96726.87;;;4.50;89.97
61359;BME280;47228;46.762;23.598;2023-11-21T05:36:44;96732.48;;;4.41;89.42
61359;BME280;47228;46.762;23.598;2023-11-21T05:39:16;96733.10;;;4.34;89.79
61359;BME280;47228;46.762;23.598;2023-11-21T05:41:45;96735.17;;;4.27;89.56
61359;BME280;47228;46.762;23.598;2023-11-21T05:44:17;96734.41;;;4.20;89.61
61359;BME280;47228;46.762;23.598;2023-11-21T05:46:45;96740.03;;;4.12;89.64
61359;BME280;47228;46.762;23.598;2023-11-21T05:49:14;96742.35;;;4.07;89.89
61359;BME280;47228;46.762;23.598;2023-11-21T05:51:43;96741.36;;;4.07;90.64
61359;BME280;47228;46.762;23.598;2023-11-21T05:54:11;96745.90;;;4.10;91.34
61359;BME280;47228;46.762;23.598;2023-11-21T05:56:39;96750.02;;;4.13;91.89
61359;BME280;47228;46.762;23.598;2023-11-21T05:59:07;96748.86;;;4.17;92.05
61359;BME280;47228;46.762;23.598;2023-11-21T06:01:38;96748.17;;;4.20;91.94
61359;BME280;47228;46.762;23.598;2023-11-21T06:04:06;96753.39;;;4.22;91.83
61359;BME280;47228;46.762;23.598;2023-11-21T06:06:38;96757.04;;;4.21;91.37
61359;BME280;47228;46.762;23.598;2023-11-21T06:09:06;96763.91;;;4.22;91.59
61359;BME280;47228;46.762;23.598;2023-11-21T06:11:36;96761.06;;;4.24;91.65
61359;BME280;47228;46.762;23.598;2023-11-21T06:14:04;96761.46;;;4.22;91.16
61359;BME280;47228;46.762;23.598;2023-11-21T06:16:35;96763.34;;;4.20;91.27
61359;BME280;47228;46.762;23.598;2023-11-21T06:19:04;96763.33;;;4.21;91.78
61359;BME280;47228;46.762;23.598;2023-11-21T06:21:33;96768.09;;;4.22;91.59
61359;BME280;47228;46.762;23.598;2023-11-21T06:24:01;96768.83;;;4.22;91.61
61359;BME280;47228;46.762;23.598;2023-11-21T06:26:29;96777.11;;;4.23;91.78
61359;BME280;47228;46.762;23.598;2023-11-21T06:28:59;96771.86;;;4.22;91.37
61359;BME280;47228;46.762;23.598;2023-11-21T06:31:29;96773.00;;;4.21;91.36
61359;BME280;47228;46.762;23.598;2023-11-21T06:33:57;96778.73;;;4.21;91.60
61359;BME280;47228;46.762;23.598;2023-11-21T06:36:27;96785.59;;;4.22;91.90
61359;BME280;47228;46.762;23.598;2023-11-21T06:38:55;96787.14;;;4.23;91.54
61359;BME280;47228;46.762;23.598;2023-11-21T06:41:23;96795.09;;;4.22;91.51
61359;BME280;47228;46.762;23.598;2023-11-21T06:43:51;96796.98;;;4.22;91.57
61359;BME280;47228;46.762;23.598;2023-11-21T06:46:20;96798.84;;;4.22;91.33
61359;BME280;47228;46.762;23.598;2023-11-21T06:48:49;96800.19;;;4.21;91.39
61359;BME280;47228;46.762;23.598;2023-11-21T06:51:18;96801.11;;;4.20;91.46
61359;BME280;47228;46.762;23.598;2023-11-21T06:53:46;96797.30;;;4.20;91.45
61359;BME280;47228;46.762;23.598;2023-11-21T06:56:18;96802.87;;;4.19;91.42
61359;BME280;47228;46.762;23.598;2023-11-21T06:58:46;96805.15;;;4.17;91.61
61359;BME280;47228;46.762;23.598;2023-11-21T07:01:14;96804.35;;;4.15;91.29
61359;BME280;47228;46.762;23.598;2023-11-21T07:03:43;96804.23;;;4.11;90.91
61359;BME280;47228;46.762;23.598;2023-11-21T07:06:11;96805.09;;;4.07;90.93
61359;BME280;47228;46.762;23.598;2023-11-21T07:08:39;96801.40;;;4.04;91.18
61359;BME280;47228;46.762;23.598;2023-11-21T07:11:07;96804.34;;;4.03;91.47
61359;BME280;47228;46.762;23.598;2023-11-21T07:13:35;96807.59;;;4.01;91.38
61359;BME280;47228;46.762;23.598;2023-11-21T07:16:05;96815.92;;;3.97;91.21
61359;BME280;47228;46.762;23.598;2023-11-21T07:18:33;96813.47;;;3.96;91.33
61359;BME280;47228;46.762;23.598;2023-11-21T07:21:01;96807.04;;;3.94;91.19
61359;BME280;47228;46.762;23.598;2023-11-21T07:23:30;96800.17;;;3.91;91.21
61359;BME280;47228;46.762;23.598;2023-11-21T07:25:58;96802.85;;;3.92;91.68
61359;BME280;47228;46.762;23.598;2023-11-21T07:28:26;96798.75;;;3.93;91.72
61359;BME280;47228;46.762;23.598;2023-11-21T07:30:54;96799.13;;;3.96;91.91
61359;BME280;47228;46.762;23.598;2023-11-21T07:33:22;96792.91;;;3.96;91.62
61359;BME280;47228;46.762;23.598;2023-11-21T07:35:50;96791.78;;;3.97;91.69
61359;BME280;47228;46.762;23.598;2023-11-21T07:38:18;96788.67;;;4.00;92.15
61359;BME280;47228;46.762;23.598;2023-11-21T07:40:47;96786.59;;;4.03;92.18
61359;BME280;47228;46.762;23.598;2023-11-21T07:43:15;96786.04;;;4.06;92.10
61359;BME280;47228;46.762;23.598;2023-11-21T07:45:43;96787.73;;;4.10;92.14
61359;BME280;47228;46.762;23.598;2023-11-21T07:48:14;96793.94;;;4.14;92.10
61359;BME280;47228;46.762;23.598;2023-11-21T07:50:42;96793.56;;;4.19;92.31
61359;BME280;47228;46.762;23.598;2023-11-21T07:53:10;96794.45;;;4.23;92.55
61359;BME280;47228;46.762;23.598;2023-11-21T07:55:38;96793.50;;;4.27;92.59
61359;BME280;47228;46.762;23.598;2023-11-21T07:58:06;96797.09;;;4.31;92.60
61359;BME280;47228;46.762;23.598;2023-11-21T08:00:34;96794.23;;;4.35;92.51
61359;BME280;47228;46.762;23.598;2023-11-21T08:03:02;96795.08;;;4.36;92.36
61359;BME280;47228;46.762;23.598;2023-11-21T08:05:31;96789.66;;;4.39;92.55
61359;BME280;47228;46.762;23.598;2023-11-21T08:08:04;96787.02;;;4.41;92.53
61359;BME280;47228;46.762;23.598;2023-11-21T08:10:33;96784.20;;;4.43;92.58
61359;BME280;47228;46.762;23.598;2023-11-21T08:13:02;96784.59;;;4.44;92.63
61359;BME280;47228;46.762;23.598;2023-11-21T08:15:31;96790.19;;;4.45;92.84
61359;BME280;47228;46.762;23.598;2023-11-21T08:18:00;96795.61;;;4.47;92.88
61359;BME280;47228;46.762;23.598;2023-11-21T08:20:28;96794.70;;;4.49;92.90
61359;BME280;47228;46.762;23.598;2023-11-21T08:22:57;96796.29;;;4.52;93.03
61359;BME280;47228;46.762;23.598;2023-11-21T08:25:25;96798.80;;;4.58;93.54
61359;BME280;47228;46.762;23.598;2023-11-21T08:27:54;96798.89;;;4.64;93.89
61359;BME280;47228;46.762;23.598;2023-11-21T08:30:22;96802.48;;;4.71;93.90
61359;BME280;47228;46.762;23.598;2023-11-21T08:32:51;96805.21;;;4.76;93.91
61359;BME280;47228;46.762;23.598;2023-11-21T08:35:21;96809.31;;;4.82;93.83
61359;BME280;47228;46.762;23.598;2023-11-21T08:37:53;96806.95;;;4.86;93.43
61359;BME280;47228;46.762;23.598;2023-11-21T08:40:21;96804.32;;;4.89;93.11
61359;BME280;47228;46.762;23.598;2023-11-21T08:42:50;96805.86;;;4.92;92.96
61359;BME280;47228;46.762;23.598;2023-11-21T08:45:23;96809.08;;;4.96;93.06
61359;BME280;47228;46.762;23.598;2023-11-21T08:47:52;96812.91;;;5.01;92.91
61359;BME280;47228;46.762;23.598;2023-11-21T08:50:20;96810.63;;;5.06;93.09
61359;BME280;47228;46.762;23.598;2023-11-21T08:52:49;96811.16;;;5.10;93.40
61359;BME280;47228;46.762;23.598;2023-11-21T08:55:17;96806.98;;;5.14;93.43
61359;BME280;47228;46.762;23.598;2023-11-21T08:57:47;96806.30;;;5.19;93.35
61359;BME280;47228;46.762;23.598;2023-11-21T09:00:16;96807.33;;;5.19;92.89
61359;BME280;47228;46.762;23.598;2023-11-21T09:02:45;96806.81;;;5.17;92.73
61359;BME280;47228;46.762;23.598;2023-11-21T09:05:15;96808.64;;;5.15;92.42
61359;BME280;47228;46.762;23.598;2023-11-21T09:07:44;96814.18;;;5.08;92.21
61359;BME280;47228;46.762;23.598;2023-11-21T09:10:14;96817.09;;;5.04;92.37
61359;BME280;47228;46.762;23.598;2023-11-21T09:12:42;96817.45;;;5.04;92.69
61359;BME280;47228;46.762;23.598;2023-11-21T09:15:11;96810.73;;;5.04;92.93
61359;BME280;47228;46.762;23.598;2023-11-21T09:17:40;96805.04;;;5.06;93.04
61359;BME280;47228;46.762;23.598;2023-11-21T09:20:09;96804.79;;;5.06;92.96
61359;BME280;47228;46.762;23.598;2023-11-21T09:22:38;96802.96;;;5.08;92.98
61359;BME280;47228;46.762;23.598;2023-11-21T09:25:10;96804.50;;;5.12;93.26
61359;BME280;47228;46.762;23.598;2023-11-21T09:27:38;96793.92;;;5.13;92.96
61359;BME280;47228;46.762;23.598;2023-11-21T09:30:07;96788.88;;;5.14;93.02
61359;BME280;47228;46.762;23.598;2023-11-21T09:32:38;96787.61;;;5.16;92.92
61359;BME280;47228;46.762;23.598;2023-11-21T09:35:08;96791.09;;;5.20;92.98
61359;BME280;47228;46.762;23.598;2023-11-21T09:37:37;96792.38;;;5.23;92.99
61359;BME280;47228;46.762;23.598;2023-11-21T09:40:10;96795.42;;;5.27;92.94
61359;BME280;47228;46.762;23.598;2023-11-21T09:42:49;96791.33;;;5.29;92.86
61359;BME280;47228;46.762;23.598;2023-11-21T09:45:29;96786.91;;;5.33;93.04
61359;BME280;47228;46.762;23.598;2023-11-21T09:48:02;96785.73;;;5.37;92.85
61359;BME280;47228;46.762;23.598;2023-11-21T09:50:30;96782.78;;;5.40;92.85
61359;BME280;47228;46.762;23.598;2023-11-21T09:53:20;96783.06;;;5.43;92.96
61359;BME280;47228;46.762;23.598;2023-11-21T09:55:52;96778.71;;;5.46;92.82
61359;BME280;47228;46.762;23.598;2023-11-21T09:58:21;96777.42;;;5.49;92.99
61359;BME280;47228;46.762;23.598;2023-11-21T10:00:53;96779.19;;;5.52;93.10
61359;BME280;47228;46.762;23.598;2023-11-21T10:03:21;96782.05;;;5.53;93.09
61359;BME280;47228;46.762;23.598;2023-11-21T10:05:51;96782.08;;;5.53;92.75
61359;BME280;47228;46.762;23.598;2023-11-21T10:08:22;96784.15;;;5.50;92.61
61359;BME280;47228;46.762;23.598;2023-11-21T10:10:53;96779.52;;;5.48;92.45
61359;BME280;47228;46.762;23.598;2023-11-21T10:13:22;96777.73;;;5.48;92.56
61359;BME280;47228;46.762;23.598;2023-11-21T10:15:51;96777.20;;;5.48;92.48
61359;BME280;47228;46.762;23.598;2023-11-21T10:18:22;96773.42;;;5.47;92.45
61359;BME280;47228;46.762;23.598;2023-11-21T10:20:54;96769.80;;;5.47;92.56
61359;BME280;47228;46.762;23.598;2023-11-21T10:23:23;96768.95;;;5.47;92.63
61359;BME280;47228;46.762;23.598;2023-11-21T10:25:52;96764.80;;;5.48;92.84
61359;BME280;47228;46.762;23.598;2023-11-21T10:28:22;96760.44;;;5.49;92.71
61359;BME280;47228;46.762;23.598;2023-11-21T10:30:51;96758.14;;;5.50;92.97
61359;BME280;47228;46.762;23.598;2023-11-21T10:33:27;96758.30;;;5.53;92.97
61359;BME280;47228;46.762;23.598;2023-11-21T10:35:56;96759.90;;;5.55;92.82
61359;BME280;47228;46.762;23.598;2023-11-21T10:38:24;96760.34;;;5.57;93.09
61359;BME280;47228;46.762;23.598;2023-11-21T10:40:54;96754.77;;;5.60;93.28
61359;BME280;47228;46.762;23.598;2023-11-21T10:43:25;96750.82;;;5.63;93.23
61359;BME280;47228;46.762;23.598;2023-11-21T10:45:57;96750.13;;;5.67;93.26
61359;BME280;47228;46.762;23.598;2023-11-21T10:48:27;96747.27;;;5.69;93.00
61359;BME280;47228;46.762;23.598;2023-11-21T10:50:55;96744.55;;;5.69;92.74
61359;BME280;47228;46.762;23.598;2023-11-21T10:53:28;96745.35;;;5.68;92.87
61359;BME280;47228;46.762;23.598;2023-11-21T10:56:05;96742.92;;;5.68;92.73
61359;BME280;47228;46.762;23.598;2023-11-21T10:58:38;96738.11;;;5.65;92.72
61359;BME280;47228;46.762;23.598;2023-11-21T11:01:06;96742.44;;;5.64;92.74
61359;BME280;47228;46.762;23.598;2023-11-21T11:03:36;96746.33;;;5.63;92.89
61359;BME280;47228;46.762;23.598;2023-11-21T11:06:05;96749.81;;;5.63;93.05
61359;BME280;47228;46.762;23.598;2023-11-21T11:08:39;96749.45;;;5.63;92.97
61359;BME280;47228;46.762;23.598;2023-11-21T11:11:09;96750.14;;;5.66;93.25
61359;BME280;47228;46.762;23.598;2023-11-21T11:13:39;96749.96;;;5.70;93.65
61359;BME280;47228;46.762;23.598;2023-11-21T11:16:13;96751.55;;;5.75;93.69
61359;BME280;47228;46.762;23.598;2023-11-21T11:18:45;96752.55;;;5.78;93.66
61359;BME280;47228;46.762;23.598;2023-11-21T11:21:25;96753.67;;;5.82;93.59
61359;BME280;47228;46.762;23.598;2023-11-21T11:26:53;96752.32;;;5.87;93.59
61359;BME280;47228;46.762;23.598;2023-11-21T11:29:44;96753.52;;;5.89;93.51
61359;BME280;47228;46.762;23.598;2023-11-21T11:32:34;96748.36;;;5.92;93.79
61359;BME280;47228;46.762;23.598;2023-11-21T11:35:12;96745.39;;;5.97;93.73
61359;BME280;47228;46.762;23.598;2023-11-21T11:37:44;96740.06;;;6.00;93.72
61359;BME280;47228;46.762;23.598;2023-11-21T11:40:12;96737.80;;;6.01;93.48
61359;BME280;47228;46.762;23.598;2023-11-21T11:42:56;96736.61;;;6.02;93.28
61359;BME280;47228;46.762;23.598;2023-11-21T11:45:25;96735.92;;;6.04;93.26
61359;BME280;47228;46.762;23.598;2023-11-21T11:48:00;96730.89;;;6.05;93.17
61359;BME280;47228;46.762;23.598;2023-11-21T11:50:29;96729.98;;;6.03;92.87
61359;BME280;47228;46.762;23.598;2023-11-21T11:53:12;96732.29;;;6.02;92.96
61359;BME280;47228;46.762;23.598;2023-11-21T11:55:41;96731.28;;;6.03;93.14
61359;BME280;47228;46.762;23.598;2023-11-21T11:58:10;96728.49;;;6.04;93.24
61359;BME280;47228;46.762;23.598;2023-11-21T12:00:39;96720.11;;;6.05;93.27
61359;BME280;47228;46.762;23.598;2023-11-21T12:03:09;96714.29;;;6.08;93.48
61359;BME280;47228;46.762;23.598;2023-11-21T12:05:38;96712.42;;;6.12;93.56
61359;BME280;47228;46.762;23.598;2023-11-21T12:08:07;96713.00;;;6.15;93.33
61359;BME280;47228;46.762;23.598;2023-11-21T12:10:37;96712.36;;;6.17;93.27
61359;BME280;47228;46.762;23.598;2023-11-21T12:13:10;96714.94;;;6.19;93.33
61359;BME280;47228;46.762;23.598;2023-11-21T12:15:40;96719.71;;;6.22;93.30
61359;BME280;47228;46.762;23.598;2023-11-21T12:18:10;96724.06;;;6.24;93.06
61359;BME280;47228;46.762;23.598;2023-11-21T12:20:38;96726.11;;;6.25;93.20
61359;BME280;47228;46.762;23.598;2023-11-21T12:23:08;96720.94;;;6.29;93.33
61359;BME280;47228;46.762;23.598;2023-11-21T12:25:37;96721.35;;;6.34;93.80
61359;BME280;47228;46.762;23.598;2023-11-21T12:28:10;96719.63;;;6.38;93.39
61359;BME280;47228;46.762;23.598;2023-11-21T12:30:38;96716.80;;;6.40;93.03
61359;BME280;47228;46.762;23.598;2023-11-21T12:33:07;96712.58;;;6.40;92.88
61359;BME280;47228;46.762;23.598;2023-11-21T12:35:38;96711.84;;;6.41;92.75
61359;BME280;47228;46.762;23.598;2023-11-21T12:38:06;96708.36;;;6.41;92.70
61359;BME280;47228;46.762;23.598;2023-11-21T12:40:37;96707.83;;;6.40;92.54
61359;BME280;47228;46.762;23.598;2023-11-21T12:43:07;96707.09;;;6.39;92.64
61359;BME280;47228;46.762;23.598;2023-11-21T12:45:36;96712.45;;;6.39;92.66
61359;BME280;47228;46.762;23.598;2023-11-21T12:48:06;96716.95;;;6.39;92.57
61359;BME280;47228;46.762;23.598;2023-11-21T12:50:39;96719.56;;;6.39;92.68
61359;BME280;47228;46.762;23.598;2023-11-21T12:53:12;96720.69;;;6.38;92.75
61359;BME280;47228;46.762;23.598;2023-11-21T12:55:41;96722.67;;;6.39;92.89
61359;BME280;47228;46.762;23.598;2023-11-21T12:58:11;96719.85;;;6.41;92.83
61359;BME280;47228;46.762;23.598;2023-11-21T13:00:46;96715.80;;;6.42;93.11
61359;BME280;47228;46.762;23.598;2023-11-21T13:03:17;96713.86;;;6.45;93.00
61359;BME280;47228;46.762;23.598;2023-11-21T13:05:48;96710.22;;;6.46;92.87
61359;BME280;47228;46.762;23.598;2023-11-21T13:08:23;96711.17;;;6.47;92.90
61359;BME280;47228;46.762;23.598;2023-11-21T13:10:54;96712.31;;;6.49;92.97
61359;BME280;47228;46.762;23.598;2023-11-21T13:13:24;96705.78;;;6.49;92.94
61359;BME280;47228;46.762;23.598;2023-11-21T13:16:00;96700.75;;;6.50;92.90